Time;durP1;ratioP1;P1;durP2;ratioP2;P2;SDS_P1;SDS_P2;PMS_P1;PMS_P2;Temp;Humidity;BMP_temperature;BMP_pressure;BME280_temperature;BME280_humidity;BME280_pressure;Samples;Min_cycle;Max_cycle;Signal;HPM_P1;HPM_P2
2023/03/18 00:01:41;;;;;;;3.45;2.50;;;15.30;47.90;;;;;;5088504;27;45409;-66
2023/03/18 00:04:08;;;;;;;2.85;2.08;;;15.30;47.90;;;;;;5088395;27;45550;-66
2023/03/18 00:06:37;;;;;;;3.13;2.03;;;15.30;47.90;;;;;;5088287;27;47688;-67
2023/03/18 00:09:04;;;;;;;2.47;1.90;;;15.30;47.90;;;;;;5088164;27;45192;-66
2023/03/18 00:11:31;;;;;;;3.15;2.13;;;15.30;47.90;;;;;;5088111;27;45260;-66
2023/03/18 00:13:59;;;;;;;2.42;2.20;;;15.30;47.90;;;;;;5088488;27;45298;-66
2023/03/18 00:16:26;;;;;;;3.05;1.92;;;15.30;47.90;;;;;;5087955;27;45498;-66
2023/03/18 00:18:53;;;;;;;3.05;2.45;;;15.20;48.50;;;;;;5087998;27;45339;-66
2023/03/18 00:21:22;;;;;;;2.55;1.90;;;15.30;47.90;;;;;;5085216;27;45256;-66
2023/03/18 00:23:49;;;;;;;2.55;1.98;;;15.20;47.90;;;;;;5087868;27;45556;-66
2023/03/18 00:26:16;;;;;;;2.45;1.90;;;15.20;47.90;;;;;;5087592;27;45410;-66
2023/03/18 00:28:43;;;;;;;2.60;2.22;;;15.20;47.90;;;;;;5087722;28;45207;-66
2023/03/18 00:31:12;;;;;;;3.10;1.70;;;15.20;47.90;;;;;;5087402;27;45209;-66
2023/03/18 00:33:39;;;;;;;2.75;2.00;;;15.20;48.00;;;;;;5088002;27;45299;-66
2023/03/18 00:36:08;;;;;;;1.95;1.73;;;15.20;48.00;;;;;;5087603;27;46926;-66
2023/03/18 00:38:35;;;;;;;2.90;1.80;;;15.20;48.00;;;;;;5087652;27;45269;-68
2023/03/18 00:41:10;;;;;;;2.55;1.80;;;15.20;48.00;;;;;;5087724;27;45554;-68
2023/03/18 00:43:44;;;;;;;2.33;1.92;;;15.20;48.00;;;;;;5087974;27;45276;-68
2023/03/18 00:46:13;;;;;;;1.98;1.73;;;15.20;48.00;;;;;;5087401;27;45752;-69
2023/03/18 00:48:40;;;;;;;2.92;1.83;;;15.10;48.00;;;;;;5087443;27;45404;-68
2023/03/18 00:51:07;;;;;;;2.28;1.60;;;15.20;48.10;;;;;;5087608;27;45325;-68
2023/03/18 00:53:34;;;;;;;2.42;1.80;;;15.10;48.00;;;;;;5087798;27;45479;-68
2023/03/18 00:56:01;;;;;;;1.63;1.52;;;15.10;48.60;;;;;;5087318;27;46412;-68
2023/03/18 00:58:28;;;;;;;1.83;1.73;;;15.10;48.10;;;;;;5087287;27;45347;-68
2023/03/18 01:00:55;;;;;;;3.42;1.60;;;15.10;48.10;;;;;;5087295;27;45325;-67
2023/03/18 01:03:25;;;;;;;2.85;1.88;;;15.10;48.00;;;;;;5087466;27;45393;-68
2023/03/18 01:05:52;;;;;;;3.25;1.90;;;15.10;48.10;;;;;;5087165;27;45475;-68
2023/03/18 01:08:20;;;;;;;2.40;1.92;;;15.10;48.00;;;;;;5087158;27;45332;-68
2023/03/18 01:10:47;;;;;;;3.17;1.73;;;15.10;48.00;;;;;;5087201;27;45365;-68
2023/03/18 01:13:14;;;;;;;2.08;1.88;;;15.10;48.00;;;;;;5087426;27;45328;-67
2023/03/18 01:15:41;;;;;;;3.03;1.98;;;15.10;48.10;;;;;;5086975;27;47598;-68
2023/03/18 01:18:10;;;;;;;2.38;1.70;;;15.10;48.00;;;;;;5086955;27;45340;-68
2023/03/18 01:20:38;;;;;;;2.10;1.83;;;15.10;48.00;;;;;;5087039;27;45309;-68
2023/03/18 01:23:06;;;;;;;2.83;2.15;;;15.00;48.00;;;;;;5087149;27;45399;-68
2023/03/18 01:25:32;;;;;;;1.75;1.63;;;15.10;48.10;;;;;;5086471;27;45432;-68
2023/03/18 01:28:00;;;;;;;1.65;1.50;;;15.00;48.10;;;;;;5086861;27;45398;-68
2023/03/18 01:30:28;;;;;;;3.20;1.90;;;15.00;48.10;;;;;;5086900;27;45372;-68
2023/03/18 01:32:55;;;;;;;1.63;1.50;;;15.00;48.10;;;;;;5087062;27;45423;-68
2023/03/18 01:35:22;;;;;;;1.98;1.58;;;15.00;48.10;;;;;;5086763;27;46722;-68
2023/03/18 01:37:52;;;;;;;3.70;1.73;;;15.00;48.10;;;;;;5086691;27;45296;-67
2023/03/18 01:40:19;;;;;;;2.35;1.50;;;15.00;48.10;;;;;;5086726;27;45248;-67
2023/03/18 01:42:48;;;;;;;2.80;2.00;;;15.00;48.10;;;;;;5085861;27;45291;-68
2023/03/18 01:45:18;;;;;;;1.90;1.67;;;15.00;48.10;;;;;;5086193;28;45519;-67
2023/03/18 01:47:45;;;;;;;1.98;1.70;;;15.00;48.10;;;;;;5086591;27;45368;-67
2023/03/18 01:50:13;;;;;;;2.30;1.60;;;15.00;48.10;;;;;;5086592;27;45221;-68
2023/03/18 01:52:40;;;;;;;2.38;1.80;;;15.00;48.10;;;;;;5086662;27;45417;-66
2023/03/18 01:55:12;;;;;;;2.15;1.75;;;15.00;48.10;;;;;;5086347;27;47603;-66
2023/03/18 01:57:40;;;;;;;2.13;1.60;;;15.00;48.10;;;;;;5086227;27;45347;-67
2023/03/18 02:00:09;;;;;;;2.17;1.70;;;15.00;48.10;;;;;;5086584;27;45316;-67
2023/03/18 02:02:36;;;;;;;1.90;1.60;;;15.00;48.10;;;;;;5086532;27;45319;-68
2023/03/18 02:05:05;;;;;;;2.92;1.55;;;14.90;48.10;;;;;;5086189;27;45534;-69
2023/03/18 02:07:33;;;;;;;1.27;1.17;;;14.90;48.10;;;;;;5086156;27;45391;-68
2023/03/18 02:10:01;;;;;;;2.75;1.70;;;14.90;48.10;;;;;;5086331;27;45299;-69
2023/03/18 02:12:32;;;;;;;1.75;1.65;;;14.90;48.10;;;;;;5086279;27;45403;-68
2023/03/18 02:14:59;;;;;;;2.58;1.92;;;14.90;48.10;;;;;;5085994;27;46782;-67
2023/03/18 02:17:26;;;;;;;1.60;1.50;;;14.90;48.10;;;;;;5086046;27;45261;-68
2023/03/18 02:19:59;;;;;;;3.00;1.80;;;14.90;48.10;;;;;;5086324;27;45319;-68
2023/03/18 02:22:28;;;;;;;2.83;1.65;;;14.90;48.10;;;;;;5086183;27;45458;-68
2023/03/18 02:25:01;;;;;;;1.55;1.30;;;14.90;48.10;;;;;;5085387;27;45337;-67
2023/03/18 02:27:30;;;;;;;1.42;1.30;;;14.90;48.10;;;;;;5086044;27;45419;-68
2023/03/18 02:29:57;;;;;;;1.90;1.50;;;14.90;48.10;;;;;;5086086;27;45313;-68
2023/03/18 02:32:26;;;;;;;1.85;1.27;;;14.90;48.10;;;;;;5085990;27;45324;-68
2023/03/18 02:34:53;;;;;;;1.67;1.52;;;14.90;48.10;;;;;;5085613;27;46650;-68
2023/03/18 02:37:20;;;;;;;3.55;1.67;;;14.90;48.10;;;;;;5085760;27;45303;-68
2023/03/18 02:39:47;;;;;;;2.47;1.70;;;14.90;48.10;;;;;;5085646;27;45241;-67
2023/03/18 02:42:15;;;;;;;2.60;1.50;;;14.90;48.10;;;;;;5085854;27;45387;-67
2023/03/18 02:44:44;;;;;;;1.83;1.40;;;14.90;48.10;;;;;;5085351;27;46600;-67
2023/03/18 02:47:13;;;;;;;1.63;1.30;;;14.90;48.10;;;;;;5085414;27;45359;-68
2023/03/18 02:49:40;;;;;;;2.03;1.63;;;14.80;48.10;;;;;;5085580;27;45257;-67
2023/03/18 02:52:07;;;;;;;1.63;1.52;;;14.80;48.10;;;;;;5085721;27;45267;-67
2023/03/18 02:54:34;;;;;;;1.63;1.40;;;14.80;48.10;;;;;;5085234;27;46789;-68
2023/03/18 02:57:01;;;;;;;1.23;1.10;;;14.80;48.10;;;;;;5085383;27;45296;-68
2023/03/18 02:59:28;;;;;;;1.88;1.38;;;14.80;48.10;;;;;;5085712;27;45431;-67
2023/03/18 03:01:57;;;;;;;2.00;1.40;;;14.80;48.10;;;;;;5085714;27;45371;-67
2023/03/18 03:04:24;;;;;;;1.45;1.35;;;14.80;48.20;;;;;;5085303;27;45447;-67
2023/03/18 03:06:51;;;;;;;1.45;1.35;;;14.80;48.10;;;;;;5085281;27;45295;-66
2023/03/18 03:09:18;;;;;;;2.15;1.50;;;14.80;48.10;;;;;;5085500;27;45271;-67
2023/03/18 03:11:46;;;;;;;2.17;1.40;;;14.80;48.10;;;;;;5085472;27;45252;-67
2023/03/18 03:14:13;;;;;;;1.60;1.50;;;14.80;48.20;;;;;;5085146;27;45722;-67
2023/03/18 03:16:40;;;;;;;1.48;1.38;;;14.80;48.20;;;;;;5085146;27;45367;-67
2023/03/18 03:19:08;;;;;;;2.22;1.60;;;14.80;48.20;;;;;;5085412;27;45355;-67
2023/03/18 03:21:35;;;;;;;1.85;1.30;;;14.80;48.10;;;;;;5085442;27;45181;-67
2023/03/18 03:24:03;;;;;;;2.53;1.70;;;14.80;48.10;;;;;;5084576;27;47347;-68
2023/03/18 03:26:30;;;;;;;1.13;1.02;;;14.80;48.10;;;;;;5085145;27;45335;-68
2023/03/18 03:28:57;;;;;;;1.55;1.38;;;14.80;48.10;;;;;;5085190;27;45392;-67
2023/03/18 03:31:25;;;;;;;2.35;1.45;;;14.70;48.10;;;;;;5085180;27;45263;-66
2023/03/18 03:33:52;;;;;;;1.58;1.35;;;14.80;48.10;;;;;;5084608;27;45291;-67
2023/03/18 03:36:20;;;;;;;1.30;1.20;;;14.70;48.10;;;;;;5084970;27;45324;-67
2023/03/18 03:38:47;;;;;;;1.55;1.33;;;14.70;48.10;;;;;;5085247;27;45350;-67
2023/03/18 03:41:14;;;;;;;2.42;1.30;;;14.70;48.10;;;;;;5085252;27;45301;-67
2023/03/18 03:43:41;;;;;;;2.25;1.60;;;14.70;48.10;;;;;;5084788;27;45236;-67
2023/03/18 03:46:08;;;;;;;1.50;1.40;;;14.70;48.10;;;;;;5084723;27;45362;-67
2023/03/18 03:48:35;;;;;;;2.70;1.48;;;14.70;48.10;;;;;;5085098;27;45460;-68
2023/03/18 03:51:02;;;;;;;1.88;1.50;;;14.70;48.10;;;;;;5084909;27;45733;-67
2023/03/18 03:53:31;;;;;;;2.08;1.17;;;14.70;48.10;;;;;;5084657;27;46635;-67
2023/03/18 03:55:57;;;;;;;2.90;1.20;;;14.70;48.10;;;;;;5084625;28;45201;-67
2023/03/18 03:58:24;;;;;;;2.08;1.38;;;14.70;48.10;;;;;;5084820;27;45399;-67
2023/03/18 04:00:51;;;;;;;1.63;1.30;;;14.70;48.10;;;;;;5084890;27;45373;-67
2023/03/18 04:03:18;;;;;;;2.50;1.60;;;14.70;48.20;;;;;;5084485;27;46418;-68
2023/03/18 04:05:45;;;;;;;1.40;1.30;;;14.70;48.70;;;;;;5085583;27;45219;-67
2023/03/18 04:08:12;;;;;;;1.75;1.13;;;14.70;48.20;;;;;;5088279;27;45243;-67
2023/03/18 04:10:41;;;;;;;1.83;1.25;;;14.60;48.10;;;;;;5088203;27;45165;-67
2023/03/18 04:13:09;;;;;;;1.42;1.20;;;14.60;48.10;;;;;;5088084;27;45623;-67
2023/03/18 04:15:35;;;;;;;1.40;1.17;;;14.60;48.20;;;;;;5088105;27;45312;-67
2023/03/18 04:18:05;;;;;;;1.95;1.20;;;14.60;48.20;;;;;;5088357;27;45326;-66
2023/03/18 04:20:34;;;;;;;1.20;1.10;;;14.60;48.20;;;;;;5088207;27;45287;-67
2023/03/18 04:23:01;;;;;;;2.30;1.23;;;14.60;48.20;;;;;;5087743;27;46657;-67
2023/03/18 04:25:28;;;;;;;1.73;1.23;;;14.60;48.20;;;;;;5087607;27;45266;-68
2023/03/18 04:27:56;;;;;;;1.38;1.05;;;14.60;48.20;;;;;;5087804;27;45358;-67
2023/03/18 04:30:24;;;;;;;1.67;1.23;;;14.50;48.20;;;;;;5088060;27;45410;-67
2023/03/18 04:32:51;;;;;;;1.20;1.10;;;14.50;48.20;;;;;;5087540;27;46931;-67
2023/03/18 04:35:19;;;;;;;1.30;1.20;;;14.50;48.30;;;;;;5087751;27;45261;-67
2023/03/18 04:37:47;;;;;;;1.80;1.10;;;14.50;48.30;;;;;;5087730;27;45379;-67
2023/03/18 04:40:14;;;;;;;1.58;1.17;;;14.50;48.30;;;;;;5087850;27;45228;-67
2023/03/18 04:42:41;;;;;;;3.20;1.30;;;14.50;48.30;;;;;;5087399;27;46746;-67
2023/03/18 04:45:11;;;;;;;1.50;1.30;;;14.50;48.30;;;;;;5087496;27;45370;-67
2023/03/18 04:47:38;;;;;;;1.77;1.15;;;14.50;48.30;;;;;;5087920;27;45345;-67
2023/03/18 04:50:05;;;;;;;1.45;1.17;;;14.50;48.30;;;;;;5087841;27;45380;-67
2023/03/18 04:52:32;;;;;;;1.20;1.10;;;14.40;48.20;;;;;;5087221;27;45211;-67
2023/03/18 04:54:59;;;;;;;1.60;1.30;;;14.40;48.20;;;;;;5087475;27;45261;-67
2023/03/18 04:57:26;;;;;;;1.35;0.90;;;14.50;48.30;;;;;;5087438;27;45326;-66
2023/03/18 04:59:53;;;;;;;1.20;1.10;;;14.40;48.20;;;;;;5087605;27;45414;-67
2023/03/18 05:02:21;;;;;;;1.08;0.98;;;14.40;48.20;;;;;;5087072;27;45486;-66
2023/03/18 05:04:48;;;;;;;1.80;1.25;;;14.40;48.20;;;;;;5087250;27;45250;-66
2023/03/18 05:07:15;;;;;;;1.02;1.00;;;14.40;48.20;;;;;;5087363;27;45307;-67
2023/03/18 05:09:42;;;;;;;1.20;1.10;;;14.40;48.30;;;;;;5087367;27;45455;-67
2023/03/18 05:12:12;;;;;;;1.20;1.10;;;14.40;48.20;;;;;;5086989;27;45477;-67
2023/03/18 05:14:39;;;;;;;1.15;1.00;;;14.40;48.20;;;;;;5087118;27;45312;-67
2023/03/18 05:17:06;;;;;;;1.30;1.20;;;14.40;48.20;;;;;;5085924;27;45292;-67
2023/03/18 05:19:34;;;;;;;1.90;1.10;;;14.40;48.30;;;;;;5087326;27;45324;-66
2023/03/18 05:22:01;;;;;;;1.40;1.10;;;14.30;48.20;;;;;;5086834;27;45285;-66
2023/03/18 05:24:27;;;;;;;1.60;1.08;;;14.30;48.20;;;;;;5086478;27;45334;-66
2023/03/18 05:26:54;;;;;;;1.40;1.02;;;14.30;48.30;;;;;;5087055;27;45403;-67
2023/03/18 05:29:22;;;;;;;0.98;0.98;;;14.30;48.30;;;;;;5086967;27;45639;-67
2023/03/18 05:31:49;;;;;;;1.23;1.00;;;14.30;48.30;;;;;;5086533;27;45340;-67
2023/03/18 05:34:16;;;;;;;2.00;1.23;;;14.30;48.30;;;;;;5086829;27;45165;-66
2023/03/18 05:36:44;;;;;;;1.33;1.13;;;14.30;48.30;;;;;;5086982;27;45207;-67
2023/03/18 05:39:11;;;;;;;1.30;0.90;;;14.30;48.40;;;;;;5084320;27;45368;-66
2023/03/18 05:41:38;;;;;;;1.00;0.90;;;14.30;48.30;;;;;;5086527;27;45479;-67
2023/03/18 05:44:06;;;;;;;1.60;1.20;;;14.30;48.30;;;;;;5086647;27;45440;-66
2023/03/18 05:46:32;;;;;;;1.33;1.00;;;14.30;48.80;;;;;;5086671;27;45208;-67
2023/03/18 05:48:59;;;;;;;1.55;1.10;;;14.30;48.20;;;;;;5086793;27;45399;-67
2023/03/18 05:51:26;;;;;;;1.38;0.82;;;14.30;48.30;;;;;;5086381;27;45444;-67
2023/03/18 05:53:55;;;;;;;1.02;1.00;;;14.30;48.30;;;;;;5086436;27;45300;-67
2023/03/18 05:56:23;;;;;;;1.20;0.98;;;14.20;48.20;;;;;;5086563;27;45232;-67
2023/03/18 05:58:50;;;;;;;1.75;0.82;;;14.20;48.30;;;;;;5086554;27;45520;-66
2023/03/18 06:01:18;;;;;;;1.10;1.00;;;14.20;48.30;;;;;;5086243;27;46325;-67
2023/03/18 06:03:45;;;;;;;1.23;0.90;;;14.20;48.30;;;;;;5086214;27;45385;-67
2023/03/18 06:06:12;;;;;;;1.70;1.10;;;14.20;48.90;;;;;;5086325;27;45378;-67
2023/03/18 06:08:40;;;;;;;1.20;1.10;;;14.20;48.30;;;;;;5086526;27;45315;-67
2023/03/18 06:11:08;;;;;;;1.50;1.00;;;14.20;48.30;;;;;;5085967;27;46986;-67
2023/03/18 06:13:35;;;;;;;1.15;1.05;;;14.20;48.30;;;;;;5085937;27;45328;-66
2023/03/18 06:16:02;;;;;;;1.58;0.90;;;14.20;48.30;;;;;;5086118;27;45289;-67
2023/03/18 06:18:29;;;;;;;1.98;1.05;;;14.20;48.30;;;;;;5086170;27;45431;-66
2023/03/18 06:20:56;;;;;;;1.33;1.00;;;14.20;48.30;;;;;;5085790;27;45330;-66
2023/03/18 06:23:23;;;;;;;0.80;0.80;;;14.20;48.20;;;;;;5085643;27;45356;-66
2023/03/18 06:25:50;;;;;;;1.00;0.90;;;14.20;48.20;;;;;;5085943;27;44988;-66
2023/03/18 06:28:19;;;;;;;1.52;1.08;;;14.20;48.80;;;;;;5085622;27;45498;-66
2023/03/18 06:30:45;;;;;;;0.95;0.80;;;14.20;48.20;;;;;;5085627;27;46654;-66
2023/03/18 06:33:14;;;;;;;1.55;1.05;;;14.20;48.10;;;;;;5085777;27;45428;-66
2023/03/18 06:35:40;;;;;;;1.15;1.05;;;14.20;48.10;;;;;;5085546;27;45300;-66
2023/03/18 06:38:09;;;;;;;0.80;0.80;;;14.20;48.10;;;;;;5086160;27;45155;-66
2023/03/18 06:40:36;;;;;;;1.20;1.10;;;14.20;48.10;;;;;;5085237;27;45315;-65
2023/03/18 06:43:03;;;;;;;1.00;0.90;;;14.20;48.10;;;;;;5085291;27;45350;-67
2023/03/18 06:45:31;;;;;;;0.80;0.77;;;14.20;48.10;;;;;;5085594;27;45240;-66
2023/03/18 06:47:59;;;;;;;1.05;0.98;;;14.20;48.10;;;;;;5085839;27;45410;-67
2023/03/18 06:50:26;;;;;;;0.80;0.80;;;14.20;48.10;;;;;;5085307;27;46957;-68
2023/03/18 06:52:53;;;;;;;1.23;0.77;;;14.20;48.10;;;;;;5085361;27;45407;-68
2023/03/18 06:55:20;;;;;;;0.80;0.80;;;14.20;48.10;;;;;;5085548;27;45333;-68
2023/03/18 06:57:47;;;;;;;1.25;0.93;;;14.20;48.10;;;;;;5085700;27;45150;-67
2023/03/18 07:00:15;;;;;;;0.80;0.80;;;14.20;48.10;;;;;;5085233;27;45816;-68
2023/03/18 07:02:44;;;;;;;0.95;0.80;;;14.20;48.10;;;;;;5085266;27;45303;-68
2023/03/18 07:05:11;;;;;;;1.02;0.90;;;14.20;48.10;;;;;;5085370;27;45353;-68
2023/03/18 07:07:38;;;;;;;1.02;0.80;;;14.20;48.10;;;;;;5085695;27;45319;-68
2023/03/18 07:10:06;;;;;;;0.82;0.75;;;14.20;48.10;;;;;;5085176;27;46654;-67
2023/03/18 07:12:33;;;;;;;0.98;0.98;;;14.20;48.10;;;;;;5084932;27;45326;-68
2023/03/18 07:15:00;;;;;;;1.15;0.90;;;14.20;48.10;;;;;;5085418;27;45298;-68
2023/03/18 07:17:28;;;;;;;1.10;1.00;;;14.20;48.10;;;;;;5085488;27;45371;-68
2023/03/18 07:19:56;;;;;;;1.08;0.90;;;14.20;48.10;;;;;;5084879;28;46571;-68
2023/03/18 07:22:23;;;;;;;0.75;0.75;;;14.20;48.10;;;;;;5084966;27;45545;-67
2023/03/18 07:24:51;;;;;;;1.45;0.95;;;14.20;48.10;;;;;;5084908;27;45422;-67
2023/03/18 07:27:17;;;;;;;0.80;0.80;;;14.20;48.10;;;;;;5085111;27;45626;-67
2023/03/18 07:29:45;;;;;;;1.15;1.05;;;14.20;48.00;;;;;;5084776;27;45322;-67
2023/03/18 07:32:12;;;;;;;1.10;0.82;;;14.20;48.10;;;;;;5084833;27;45180;-67
2023/03/18 07:34:39;;;;;;;1.10;0.90;;;14.20;48.10;;;;;;5085106;27;45402;-66
2023/03/18 07:37:07;;;;;;;0.85;0.85;;;14.20;48.10;;;;;;5085204;27;45466;-67
2023/03/18 07:39:34;;;;;;;1.17;1.00;;;14.30;48.10;;;;;;5084816;27;46275;-67
2023/03/18 07:42:01;;;;;;;1.00;1.00;;;14.20;48.10;;;;;;5087578;27;45265;-67
2023/03/18 07:44:28;;;;;;;0.82;0.77;;;14.20;48.00;;;;;;5088379;27;45291;-67
2023/03/18 07:46:55;;;;;;;0.80;0.80;;;14.30;48.10;;;;;;5088166;28;45352;-66
2023/03/18 07:49:22;;;;;;;1.80;1.08;;;14.30;48.10;;;;;;5088272;27;46354;-66
2023/03/18 07:51:49;;;;;;;1.17;1.00;;;14.30;48.00;;;;;;5088184;27;45329;-66
2023/03/18 07:54:18;;;;;;;0.90;0.90;;;14.30;48.00;;;;;;5088360;27;45248;-65
2023/03/18 07:56:45;;;;;;;1.67;1.02;;;14.30;48.00;;;;;;5088585;27;45371;-66
2023/03/18 07:59:12;;;;;;;2.55;1.00;;;14.30;48.00;;;;;;5087767;27;45368;-65
2023/03/18 08:01:40;;;;;;;1.17;0.93;;;14.30;48.00;;;;;;5088106;27;45303;-66
2023/03/18 08:04:07;;;;;;;1.55;0.90;;;14.30;48.00;;;;;;5088207;27;45327;-66
2023/03/18 08:06:34;;;;;;;1.17;1.00;;;14.30;48.00;;;;;;5088060;27;45312;-66
2023/03/18 08:09:01;;;;;;;1.15;0.90;;;14.30;48.00;;;;;;5087873;27;45495;-66
2023/03/18 08:11:29;;;;;;;0.75;0.75;;;14.30;48.00;;;;;;5087839;27;45268;-66
2023/03/18 08:13:56;;;;;;;0.80;0.80;;;14.30;47.90;;;;;;5087800;27;45171;-66
2023/03/18 08:16:22;;;;;;;0.77;0.77;;;14.40;47.90;;;;;;5088166;27;45362;-66
2023/03/18 08:18:49;;;;;;;1.33;0.90;;;14.40;47.90;;;;;;5087803;27;45817;-66
2023/03/18 08:21:16;;;;;;;1.13;0.80;;;14.40;47.90;;;;;;5087485;27;45428;-66
2023/03/18 08:23:43;;;;;;;1.05;0.95;;;14.40;47.90;;;;;;5087447;27;45315;-66
2023/03/18 08:26:10;;;;;;;1.50;1.00;;;14.40;48.40;;;;;;5087922;27;45558;-66
2023/03/18 08:28:39;;;;;;;0.88;0.80;;;14.40;47.80;;;;;;5087917;27;47628;-66
2023/03/18 08:31:08;;;;;;;1.05;0.93;;;14.50;47.80;;;;;;5087555;27;45403;-67
2023/03/18 08:33:35;;;;;;;1.05;0.90;;;14.50;47.80;;;;;;5087404;27;45358;-66
2023/03/18 08:36:04;;;;;;;1.38;1.00;;;14.40;47.80;;;;;;5085498;27;45330;-65
2023/03/18 08:38:34;;;;;;;1.95;0.77;;;14.50;47.80;;;;;;5085345;27;46260;-66
2023/03/18 08:41:02;;;;;;;1.10;1.00;;;14.50;47.80;;;;;;5084202;28;45396;-66
2023/03/18 08:43:29;;;;;;;0.70;0.70;;;14.50;47.70;;;;;;5086070;27;45278;-66
2023/03/18 08:45:58;;;;;;;2.28;0.93;;;14.60;47.70;;;;;;5086296;27;45635;-68
2023/03/18 08:48:25;;;;;;;0.82;0.82;;;14.60;47.60;;;;;;5085331;27;46650;-66
2023/03/18 08:50:52;;;;;;;0.88;0.88;;;14.60;48.20;;;;;;5085997;27;45420;-66
2023/03/18 08:53:19;;;;;;;0.68;0.68;;;14.70;47.50;;;;;;5086106;27;45375;-65
2023/03/18 08:55:46;;;;;;;0.98;0.90;;;14.60;47.40;;;;;;5086437;27;45465;-67
2023/03/18 08:58:13;;;;;;;1.48;1.05;;;14.70;47.50;;;;;;5085983;27;46720;-66
2023/03/18 09:00:40;;;;;;;0.80;0.80;;;14.70;47.50;;;;;;5085860;27;45393;-67
2023/03/18 09:03:08;;;;;;;0.65;0.65;;;14.70;47.60;;;;;;5086167;27;45398;-66
2023/03/18 09:05:36;;;;;;;0.70;0.70;;;14.80;47.60;;;;;;5087671;27;45713;-65
2023/03/18 09:08:04;;;;;;;1.00;0.90;;;14.80;47.60;;;;;;5085705;27;45604;-66
2023/03/18 09:10:30;;;;;;;0.82;0.82;;;14.80;47.60;;;;;;5085478;27;45474;-66
2023/03/18 09:12:58;;;;;;;1.65;1.00;;;14.80;47.60;;;;;;5085874;27;45344;-66
2023/03/18 09:15:26;;;;;;;1.13;0.93;;;14.90;47.60;;;;;;5086252;27;46451;-68
2023/03/18 09:17:53;;;;;;;0.88;0.88;;;14.90;47.50;;;;;;5085588;28;45786;-66
2023/03/18 09:20:22;;;;;;;1.27;0.98;;;14.90;47.50;;;;;;5085844;27;45417;-66
2023/03/18 09:22:50;;;;;;;2.00;1.17;;;15.00;47.60;;;;;;5083795;27;45337;-66
2023/03/18 09:25:18;;;;;;;2.28;0.90;;;15.00;47.40;;;;;;5083311;27;45340;-66
2023/03/18 09:27:44;;;;;;;1.38;1.05;;;15.00;47.40;;;;;;5086543;27;47365;-66
2023/03/18 09:30:12;;;;;;;1.33;0.85;;;15.00;47.40;;;;;;5086758;27;45289;-65
2023/03/18 09:32:39;;;;;;;1.73;1.10;;;15.10;47.50;;;;;;5086782;27;45247;-65
2023/03/18 09:35:08;;;;;;;5.10;1.00;;;15.10;47.60;;;;;;5087030;27;45417;-66
2023/03/18 09:37:36;;;;;;;2.83;1.15;;;15.10;47.70;;;;;;5087676;27;45465;-66
2023/03/18 09:40:06;;;;;;;3.95;1.20;;;15.20;47.80;;;;;;5086968;27;45247;-66
2023/03/18 09:42:41;;;;;;;2.25;1.05;;;15.20;47.80;;;;;;5086529;27;45417;-66
2023/03/18 09:45:13;;;;;;;3.47;1.10;;;15.20;47.90;;;;;;5086929;27;45362;-66
2023/03/18 09:48:02;;;;;;;1.70;0.90;;;15.30;48.00;;;;;;5086287;27;47319;-66
2023/03/18 09:50:35;;;;;;;1.80;1.00;;;15.30;48.00;;;;;;5079250;27;45372;-66
2023/03/18 09:53:12;;;;;;;2.60;1.20;;;15.40;48.10;;;;;;5086641;27;45453;-66
2023/03/18 09:55:43;;;;;;;1.25;1.10;;;15.40;48.10;;;;;;5087205;27;45417;-67
2023/03/18 09:58:18;;;;;;;2.42;0.82;;;15.40;48.10;;;;;;5086131;27;47368;-66
2023/03/18 10:00:45;;;;;;;4.50;1.27;;;15.40;48.70;;;;;;5086253;27;45397;-66
2023/03/18 10:03:14;;;;;;;1.23;0.90;;;15.50;48.10;;;;;;5085482;27;45392;-67
2023/03/18 10:05:44;;;;;;;3.75;1.00;;;15.50;48.10;;;;;;5086566;27;45122;-66
2023/03/18 10:08:15;;;;;;;3.30;1.08;;;15.50;48.20;;;;;;5085983;27;46773;-68
2023/03/18 10:10:44;;;;;;;2.67;1.00;;;15.50;48.20;;;;;;5085760;27;45189;-65
2023/03/18 10:13:14;;;;;;;2.80;1.30;;;15.60;48.20;;;;;;5086672;27;45272;-65
2023/03/18 10:15:44;;;;;;;1.90;1.30;;;15.60;48.10;;;;;;5086368;27;45379;-67
2023/03/18 10:18:12;;;;;;;1.65;1.00;;;15.60;48.10;;;;;;5085846;27;45318;-67
2023/03/18 10:20:57;;;;;;;2.15;0.90;;;15.70;48.10;;;;;;5078748;27;45463;-65
2023/03/18 10:23:32;;;;;;;1.60;1.02;;;15.70;48.10;;;;;;5065463;28;45343;-65
2023/03/18 10:26:00;;;;;;;0.88;0.88;;;15.70;48.10;;;;;;5074269;28;45522;-65
2023/03/18 10:28:48;;;;;;;2.05;0.90;;;15.80;48.70;;;;;;5085636;27;45738;-65
2023/03/18 10:31:21;;;;;;;1.35;1.10;;;15.80;47.90;;;;;;5104364;27;45319;-65
2023/03/18 10:33:50;;;;;;;2.03;1.23;;;15.90;47.90;;;;;;5106430;27;45322;-66
2023/03/18 10:36:19;;;;;;;1.75;0.90;;;15.90;48.00;;;;;;5105550;27;45495;-67
2023/03/18 10:38:48;;;;;;;1.98;1.08;;;16.00;47.90;;;;;;5092259;27;46298;-67
2023/03/18 10:41:19;;;;;;;1.83;1.08;;;16.00;47.90;;;;;;5085550;27;45394;-67
2023/03/18 10:43:46;;;;;;;2.97;1.20;;;16.00;47.80;;;;;;5085856;27;45244;-67
2023/03/18 10:46:15;;;;;;;1.52;1.02;;;16.10;47.80;;;;;;5086396;27;45259;-67
2023/03/18 10:48:43;;;;;;;2.00;1.00;;;16.10;47.80;;;;;;5085137;27;46653;-67
2023/03/18 10:51:11;;;;;;;1.52;0.90;;;16.20;47.60;;;;;;5085371;27;45265;-67
2023/03/18 10:53:40;;;;;;;1.10;1.00;;;16.30;47.70;;;;;;5080640;27;46080;-67
2023/03/18 10:56:09;;;;;;;0.95;0.95;;;16.30;47.50;;;;;;5075123;28;45474;-67
2023/03/18 10:58:36;;;;;;;2.13;0.80;;;16.40;47.60;;;;;;5085063;27;45339;-67
2023/03/18 11:01:04;;;;;;;2.33;0.98;;;16.40;47.50;;;;;;5084090;27;45284;-67
2023/03/18 11:03:33;;;;;;;2.17;1.42;;;16.50;47.30;;;;;;5084328;27;45374;-67
2023/03/18 11:06:01;;;;;;;3.00;0.90;;;16.50;47.30;;;;;;5083825;27;46489;-67
2023/03/18 11:08:35;;;;;;;2.92;1.30;;;16.60;47.30;;;;;;5083406;28;46610;-65
2023/03/18 11:11:25;;;;;;;2.58;1.20;;;16.60;47.20;;;;;;5078639;27;45322;-65
2023/03/18 11:13:53;;;;;;;2.47;1.02;;;16.70;47.10;;;;;;5072237;28;45464;-66
2023/03/18 11:16:29;;;;;;;2.03;1.10;;;16.80;47.00;;;;;;5082989;27;45489;-65
2023/03/18 11:18:56;;;;;;;0.85;0.82;;;16.90;46.80;;;;;;5079373;27;46489;-66
2023/03/18 11:21:24;;;;;;;2.72;1.40;;;17.00;46.70;;;;;;5083746;27;45415;-65
2023/03/18 11:24:07;;;;;;;0.98;0.95;;;17.10;46.50;;;;;;5083388;27;45344;-65
2023/03/18 11:26:45;;;;;;;2.20;1.23;;;17.20;46.40;;;;;;5084506;27;45569;-66
2023/03/18 11:29:14;;;;;;;0.90;0.90;;;17.20;46.30;;;;;;5081356;27;45539;-66
2023/03/18 11:31:49;;;;;;;2.33;1.23;;;17.30;46.30;;;;;;5081219;27;45289;-66
2023/03/18 11:34:17;;;;;;;3.25;1.17;;;17.40;46.30;;;;;;5075702;28;45532;-66
2023/03/18 11:36:44;;;;;;;2.45;1.20;;;17.50;46.30;;;;;;5080594;28;45416;-66
2023/03/18 11:39:18;;;;;;;2.30;1.15;;;17.50;46.20;;;;;;5083566;27;45383;-66
2023/03/18 11:41:47;;;;;;;1.63;1.30;;;17.60;46.10;;;;;;5071250;28;45403;-66
2023/03/18 11:44:16;;;;;;;2.33;1.00;;;17.70;46.10;;;;;;5073670;27;45416;-66
2023/03/18 11:46:45;;;;;;;1.65;1.25;;;17.70;46.00;;;;;;5083677;27;45334;-66
2023/03/18 11:49:13;;;;;;;2.58;1.20;;;17.80;46.00;;;;;;5084340;27;45376;-66
2023/03/18 11:51:43;;;;;;;3.33;1.60;;;17.90;45.80;;;;;;5082962;27;45621;-66
2023/03/18 11:54:23;;;;;;;1.48;1.10;;;17.90;45.80;;;;;;5083404;27;45380;-66
2023/03/18 11:56:55;;;;;;;2.20;1.23;;;18.00;45.70;;;;;;5086771;27;45490;-66
2023/03/18 11:59:29;;;;;;;1.15;1.10;;;18.10;45.90;;;;;;5078561;28;46568;-66
2023/03/18 12:02:03;;;;;;;2.60;1.30;;;18.10;45.80;;;;;;5081537;27;45572;-66
2023/03/18 12:04:38;;;;;;;2.08;1.00;;;18.20;45.60;;;;;;5082458;27;45576;-66
2023/03/18 12:07:29;;;;;;;2.33;1.17;;;18.30;45.50;;;;;;5081924;28;45435;-67
2023/03/18 12:10:02;;;;;;;1.10;1.00;;;18.30;45.60;;;;;;5071857;28;46680;-67
2023/03/18 12:12:41;;;;;;;2.47;1.10;;;18.30;45.60;;;;;;5072397;27;45577;-67
2023/03/18 12:15:12;;;;;;;2.75;1.20;;;18.40;45.50;;;;;;5084133;27;45395;-67
2023/03/18 12:17:42;;;;;;;1.95;1.25;;;18.40;45.50;;;;;;5078860;27;45448;-67
2023/03/18 12:20:33;;;;;;;4.50;1.40;;;18.50;45.40;;;;;;5082903;27;46381;-66
2023/03/18 12:23:04;;;;;;;2.58;1.02;;;18.50;45.40;;;;;;5077281;27;45476;-66
2023/03/18 12:25:44;;;;;;;1.58;1.25;;;18.50;45.10;;;;;;5080252;27;45463;-66
2023/03/18 12:28:17;;;;;;;1.73;1.20;;;18.50;45.40;;;;;;5087077;27;45460;-67
2023/03/18 12:31:00;;;;;;;1.73;1.10;;;18.50;45.70;;;;;;5081978;27;45464;-66
2023/03/18 12:33:34;;;;;;;2.08;1.00;;;18.50;45.70;;;;;;5081340;28;45457;-66
2023/03/18 12:36:04;;;;;;;5.18;1.17;;;18.50;45.70;;;;;;5088136;27;45386;-67
2023/03/18 12:38:56;;;;;;;4.10;1.20;;;18.50;45.50;;;;;;5078084;27;45458;-67
2023/03/18 12:41:26;;;;;;;2.05;0.90;;;18.50;45.60;;;;;;5085697;27;45534;-68
2023/03/18 12:44:01;;;;;;;2.85;1.20;;;18.50;45.70;;;;;;5087304;27;45253;-67
2023/03/18 12:46:33;;;;;;;1.73;1.08;;;18.50;45.70;;;;;;5075418;28;45311;-66
2023/03/18 12:49:04;;;;;;;4.57;1.20;;;18.50;45.70;;;;;;5085828;27;45274;-66
2023/03/18 12:51:37;;;;;;;3.30;1.17;;;18.50;45.90;;;;;;5072167;27;46339;-68
2023/03/18 12:54:09;;;;;;;1.95;1.17;;;18.50;45.80;;;;;;5081248;27;45306;-66
2023/03/18 12:56:38;;;;;;;4.82;0.88;;;18.50;46.00;;;;;;5087342;27;45323;-68